Oak Hill, WV (25901)

11:00 AM EST on February 14, 2016 (GMT -0500)
F.I.T. - Oyler Ave. | | Change Station
CLOSE
Current Station
Personal Weather Station
Location: Oak Hill, WV
Elevation: 1988 ft
Nearby Weather Stations

Elev 1988 ft 37.99 °N, 81.15 °W | Updated 6 seconds ago

Overcast
Overcast
11.3 °F
Feels Like 11 °F
N
0.0
Wind Variable Wind from South
Gusts 0.0 mph

Today
High -- | Low -- °F
--% Chance of Precip.
Yesterday
High -- | Low -- °F
Precip. -- in
Pressure 30.52 in
Visibility 10.0 miles
Clouds Overcast 9000 ft
Windchill 11 °F
Dew Point 2 °F
Humidity 66%
Rainfall 0.00 in
Snow Depth Not available.
7:16 AM 6:01 PM
Waxing Crescent, 43% visible
METAR KBKW 141551Z AUTO 10008KT 10SM OVC090 M12/M19 A3032 RMK AO2 SLP335 T11171194
Pressure 30.52 in
Visibility 10.0 miles
Clouds Overcast 9000 ft
Windchill 11 °F
Dew Point 2 °F
Humidity 66%
Rainfall 0.00 in
Snow Depth Not available.
7:16 AM 6:01 PM
Waxing Crescent, 43% visible
METAR KBKW 141551Z AUTO 10008KT 10SM OVC090 M12/M19 A3032 RMK AO2 SLP335 T11171194

10-Day Weather Forecast

Almanac

Astronomy

Feb. 14, 2016 Rise Set
Actual Time
Civil Twilight
Nautical Twilight
Astronomical Twilight
Moon
Length of Visible Light
Length of Day
Tomorrow will be .
, % of the Moon is Illuminated

Today's Extremes

State Highs State Lows

Community

WunderPhotos

Upload Photos

1,892,802 photos uploaded!

WunderBlog® & News

Nearby

Air Quality

  Air Quality AQ Index Pollutant
Not available.

Snow Depth

Station Depth Elevation

Earthquake Activity

City Distance Mag. Time & Date
Minimum magnitude displayed is 2.5.

Coastal Water Temperatures

Place Temperature

Stations

Nearby Weather Stations

Station Location Temp. Windchill Dew Point Humidity Wind Precip. Elev Updated Type
                   

Watches & Warnings

Winter Weather Advisory
Issued: 5:52 AM EST Feb. 14, 2016 – National Weather Service

... Winter Weather Advisory remains in effect from 4 PM this
afternoon to 7 am EST Tuesday...

* accumulations... snow accumulation of 3 to 5 inches. Up to a
tenth of an inch of ice accretion over the far eastern portions
of the advised counties.

* Temperatures... in the teens... rising into the low to mid 30s
by Tuesday morning.

* Timing... this afternoon through Tuesday morning.

* Impacts... untreated roads will be come snow covered... creating
hazardous travel conditions. Some limbs may fall due to ice
accretion.

Precautionary/preparedness actions...

A Winter Weather Advisory means that periods of snow... sleet...
and freezing rain will cause travel difficulties. Be prepared for
slippery roads and limited visibilities... and use caution while
driving.